Time;durP1;ratioP1;P1;durP2;ratioP2;P2;SDS_P1;SDS_P2;PMS_P1;PMS_P2;Temp;Humidity;BMP_temperature;BMP_pressure;BME280_temperature;BME280_humidity;BME280_pressure;Samples;Min_cycle;Max_cycle;Signal;HPM_P1;HPM_P2
2024/01/27 00:01:07;;;;;;;16.10;2.40;;;;;;;4.38;100.00;103249.78;7403451;19;20340;-75
2024/01/27 00:03:37;;;;;;;8.80;1.85;;;;;;;4.41;100.00;103244.25;7403177;19;19918;-74
2024/01/27 00:06:07;;;;;;;12.48;2.08;;;;;;;4.45;100.00;103243.16;7403662;19;19927;-75
2024/01/27 00:08:38;;;;;;;13.25;2.45;;;;;;;4.51;100.00;103253.53;7403107;19;19922;-75
2024/01/27 00:11:08;;;;;;;17.30;2.25;;;;;;;4.53;100.00;103248.97;7403112;19;19923;-75
2024/01/27 00:13:37;;;;;;;9.35;1.92;;;;;;;4.54;100.00;103261.38;7402923;19;19930;-75
2024/01/27 00:16:08;;;;;;;10.15;1.80;;;;;;;4.54;100.00;103258.69;7402790;19;19923;-75
2024/01/27 00:18:38;;;;;;;17.63;2.33;;;;;;;4.53;100.00;103254.31;7403474;19;19926;-75
2024/01/27 00:21:09;;;;;;;18.58;3.70;;;;;;;4.51;100.00;103250.00;7402640;19;19944;-75
2024/01/27 00:23:41;;;;;;;15.60;2.15;;;;;;;4.47;100.00;103256.44;7402339;19;19922;-75
2024/01/27 00:26:11;;;;;;;;;;;;;;;4.37;100.00;103264.03;7405382;19;19929;-75
2024/01/27 00:28:40;;;;;;;14.48;2.30;;;;;;;4.40;100.00;103266.53;7403210;19;19922;-75
2024/01/27 00:31:09;;;;;;;7.88;1.63;;;;;;;4.38;100.00;103260.44;7406448;19;19926;-75
2024/01/27 00:33:39;;;;;;;10.77;2.20;;;;;;;4.37;100.00;103253.38;7410560;19;19922;-75
2024/01/27 00:36:09;;;;;;;11.35;1.38;;;;;;;4.37;100.00;103263.19;7408267;19;19927;-75
2024/01/27 00:38:41;;;;;;;15.50;1.90;;;;;;;4.34;100.00;103258.88;7402971;19;19932;-75
2024/01/27 00:41:12;;;;;;;15.13;2.03;;;;;;;4.32;100.00;103271.41;7403000;19;19931;-76
2024/01/27 00:43:42;;;;;;;7.53;1.88;;;;;;;4.32;100.00;103281.22;7401733;19;19911;-75
2024/01/27 00:46:11;;;;;;;12.48;1.95;;;;;;;4.30;100.00;103284.00;7402704;19;19934;-75
2024/01/27 00:48:40;;;;;;;5.68;1.83;;;;;;;4.27;100.00;103286.78;7401838;19;19918;-75
2024/01/27 00:51:10;;;;;;;12.70;1.88;;;;;;;4.25;100.00;103286.03;7402060;19;20344;-75
2024/01/27 00:53:43;;;;;;;9.15;2.33;;;;;;;4.22;100.00;103283.50;7401651;19;19926;-75
2024/01/27 00:56:12;;;;;;;12.82;2.05;;;;;;;4.19;100.00;103288.97;7401863;19;19918;-75
2024/01/27 00:58:42;;;;;;;23.38;2.78;;;;;;;4.17;100.00;103298.88;7400907;19;19934;-75
2024/01/27 01:01:12;;;;;;;13.80;2.03;;;;;;;4.16;100.00;103297.16;7402254;19;19922;-75
2024/01/27 01:03:41;;;;;;;15.50;2.03;;;;;;;4.16;100.00;103286.47;7401516;19;19918;-75
2024/01/27 01:06:11;;;;;;;15.32;2.38;;;;;;;4.15;100.00;103290.06;7401394;19;19922;-75
2024/01/27 01:08:43;;;;;;;16.02;2.45;;;;;;;4.15;100.00;103291.88;7401931;19;19922;-75
2024/01/27 01:11:12;;;;;;;10.85;1.75;;;;;;;4.13;100.00;103299.97;7401791;19;20542;-75
2024/01/27 01:13:41;;;;;;;16.50;2.25;;;;;;;4.12;100.00;103300.91;7401355;19;19914;-75
2024/01/27 01:16:11;;;;;;;7.70;2.00;;;;;;;4.11;100.00;103300.03;7400370;19;20604;-75
2024/01/27 01:18:40;;;;;;;11.25;2.33;;;;;;;4.07;100.00;103303.81;7391694;19;20360;-75
2024/01/27 01:21:10;;;;;;;14.57;1.85;;;;;;;4.06;100.00;103301.19;7397917;19;20246;-75
2024/01/27 01:23:39;;;;;;;5.82;1.50;;;;;;;4.03;100.00;103301.34;7400629;19;19930;-75
2024/01/27 01:26:11;;;;;;;11.95;1.98;;;;;;;4.01;100.00;103301.41;7399587;19;20565;-76
2024/01/27 01:28:41;;;;;;;15.73;2.58;;;;;;;3.99;100.00;103310.44;7400239;19;19918;-76
2024/01/27 01:31:10;;;;;;;15.25;3.10;;;;;;;3.97;100.00;103302.50;7398966;19;19922;-75
2024/01/27 01:33:39;;;;;;;11.38;2.15;;;;;;;3.94;100.00;103302.66;7400140;19;19918;-75
2024/01/27 01:36:09;;;;;;;14.75;2.28;;;;;;;3.95;100.00;103296.41;7398708;19;20332;-75
2024/01/27 01:38:39;;;;;;;17.25;2.55;;;;;;;3.94;100.00;103305.34;7399507;19;19925;-75
2024/01/27 01:41:11;;;;;;;15.88;2.13;;;;;;;3.94;100.00;103312.47;7399826;19;19934;-75
2024/01/27 01:43:40;;;;;;;15.32;3.55;;;;;;;3.92;100.00;103309.03;7398686;19;19931;-75
2024/01/27 01:46:10;;;;;;;15.18;3.35;;;;;;;3.89;100.00;103311.81;7399963;19;20359;-76
2024/01/27 01:48:40;;;;;;;11.95;2.83;;;;;;;3.88;100.00;103318.13;7397959;19;19923;-74
2024/01/27 01:51:11;;;;;;;12.02;2.20;;;;;;;3.86;100.00;103318.19;7399910;19;19937;-75
2024/01/27 01:53:40;;;;;;;12.30;2.28;;;;;;;3.88;100.00;103315.47;7398098;19;19930;-75
2024/01/27 01:56:12;;;;;;;9.43;2.25;;;;;;;3.88;100.00;103315.47;7399590;19;19918;-76
2024/01/27 01:58:42;;;;;;;16.02;2.63;;;;;;;3.87;100.00;103316.38;7399756;19;19922;-75
2024/01/27 02:01:12;;;;;;;17.70;2.58;;;;;;;3.90;100.00;103316.22;7399211;19;19919;-75
2024/01/27 02:03:41;;;;;;;18.52;2.58;;;;;;;3.88;100.00;103315.47;7399112;19;19926;-75
2024/01/27 02:06:11;;;;;;;14.77;2.10;;;;;;;3.86;100.00;103306.66;7399190;19;19926;-75
2024/01/27 02:08:40;;;;;;;13.15;1.88;;;;;;;3.83;100.00;103304.16;7400277;19;20433;-74
2024/01/27 02:11:12;;;;;;;7.43;2.00;;;;;;;3.80;100.00;103309.59;7405436;19;19919;-75
2024/01/27 02:13:42;;;;;;;;;;;;;;;3.70;100.00;103314.53;7407631;19;19925;-75
2024/01/27 02:16:11;;;;;;;;;;;;;;;3.67;100.00;103319.97;7406465;19;19922;-75
2024/01/27 02:18:40;;;;;;;12.85;2.25;;;;;;;3.67;100.00;103320.84;7404242;19;19926;-75
2024/01/27 02:21:10;;;;;;;14.95;1.90;;;;;;;3.67;100.00;103313.81;7405372;19;19918;-75
2024/01/27 02:23:39;;;;;;;10.45;2.22;;;;;;;3.66;100.00;103315.63;7404073;19;19926;-75
2024/01/27 02:26:11;;;;;;;13.75;2.58;;;;;;;3.67;100.00;103309.31;7401857;19;20343;-75
2024/01/27 02:28:41;;;;;;;13.35;2.05;;;;;;;3.64;100.00;103306.81;7404070;19;19926;-74
2024/01/27 02:31:10;;;;;;;10.75;1.95;;;;;;;3.60;100.00;103308.75;7405186;19;19934;-74
2024/01/27 02:33:39;;;;;;;17.85;2.30;;;;;;;3.58;100.00;103309.78;7404184;19;19926;-74
2024/01/27 02:36:09;;;;;;;11.55;2.67;;;;;;;3.57;100.00;103316.91;7404229;19;20917;-74
2024/01/27 02:38:39;;;;;;;21.05;3.90;;;;;;;3.57;100.00;103314.25;7405418;19;19918;-75
2024/01/27 02:41:12;;;;;;;11.73;2.08;;;;;;;3.58;100.00;103315.94;7404270;19;19922;-75
2024/01/27 02:43:41;;;;;;;14.32;2.03;;;;;;;3.57;100.00;103314.25;7404168;19;19930;-75
2024/01/27 02:46:15;;;;;;;13.57;2.22;;;;;;;3.58;100.00;103323.13;7404526;19;20340;-75
2024/01/27 02:48:45;;;;;;;14.50;2.40;;;;;;;3.55;100.00;103318.78;7404714;19;20355;-75
2024/01/27 02:51:14;;;;;;;15.73;2.30;;;;;;;3.55;100.00;103323.22;7404283;19;19922;-76
2024/01/27 02:53:44;;;;;;;13.30;1.98;;;;;;;3.55;100.00;103325.91;7405330;19;20270;-75
2024/01/27 02:56:16;;;;;;;10.00;1.42;;;;;;;3.54;100.00;103322.38;7407513;19;19922;-75
2024/01/27 02:58:45;;;;;;;12.25;2.10;;;;;;;3.51;100.00;103325.19;7412492;19;20280;-75
2024/01/27 03:01:14;;;;;;;14.38;2.38;;;;;;;3.52;100.00;103323.38;7408581;19;19910;-75
2024/01/27 03:03:44;;;;;;;17.52;1.95;;;;;;;3.52;100.00;103326.91;7403813;19;19930;-75
2024/01/27 03:06:13;;;;;;;14.60;2.53;;;;;;;3.54;100.00;103329.50;7404524;19;19927;-75
2024/01/27 03:08:43;;;;;;;11.43;1.88;;;;;;;3.55;100.00;103332.09;7403485;19;19922;-75
2024/01/27 03:11:12;;;;;;;15.23;2.30;;;;;;;3.58;100.00;103334.59;7404650;19;19922;-75
2024/01/27 03:13:45;;;;;;;9.30;2.25;;;;;;;3.59;100.00;103328.34;7402533;19;19918;-75
2024/01/27 03:16:14;;;;;;;11.70;2.42;;;;;;;3.59;100.00;103325.69;7402765;19;20355;-75
2024/01/27 03:18:43;;;;;;;11.57;2.13;;;;;;;3.59;100.00;103327.47;7403679;19;19911;-75
2024/01/27 03:21:13;;;;;;;9.35;1.85;;;;;;;3.57;100.00;103319.59;7402174;19;19918;-75
2024/01/27 03:23:42;;;;;;;9.40;1.38;;;;;;;3.59;100.00;103327.47;7404336;19;19923;-75
2024/01/27 03:26:12;;;;;;;12.05;1.70;;;;;;;3.60;100.00;103322.09;7403144;19;19926;-75
2024/01/27 03:28:44;;;;;;;11.63;1.52;;;;;;;3.60;100.00;103321.22;7404386;19;19925;-75
2024/01/27 03:31:13;;;;;;;;;;;;;;;3.55;100.00;103323.22;7405379;19;19919;-75
2024/01/27 03:33:42;;;;;;;5.75;1.48;;;;;;;3.57;100.00;103324.91;7402743;19;19930;-75
2024/01/27 03:36:13;;;;;;;10.68;1.90;;;;;;;3.58;100.00;103315.94;7403466;19;19925;-75
2024/01/27 03:38:43;;;;;;;20.83;3.20;;;;;;;3.62;100.00;103319.38;7403700;19;19915;-75
2024/01/27 03:41:12;;;;;;;9.00;2.58;;;;;;;3.64;100.00;103329.00;7403380;19;19966;-75
2024/01/27 03:43:44;;;;;;;6.15;1.80;;;;;;;3.67;100.00;103327.97;7403533;19;19926;-75
2024/01/27 03:46:14;;;;;;;11.88;2.15;;;;;;;3.69;100.00;103338.59;7402625;19;19926;-75
2024/01/27 03:48:43;;;;;;;7.82;1.55;;;;;;;3.69;100.00;103326.13;7402358;19;19918;-75
2024/01/27 03:51:13;;;;;;;12.80;1.88;;;;;;;3.68;100.00;103329.72;7401691;19;19921;-76
2024/01/27 03:53:42;;;;;;;7.85;1.75;;;;;;;3.69;100.00;103333.25;7402799;19;19914;-75
2024/01/27 03:56:14;;;;;;;11.52;1.67;;;;;;;3.67;100.00;103324.47;7403126;19;20265;-76
2024/01/27 03:58:46;;;;;;;9.88;1.40;;;;;;;3.67;100.00;103322.66;7402102;19;19934;-76
2024/01/27 04:01:15;;;;;;;9.25;1.63;;;;;;;3.66;100.00;103323.63;7403450;19;20028;-75
2024/01/27 04:03:45;;;;;;;12.40;1.58;;;;;;;3.64;100.00;103321.00;7403039;19;19933;-75
2024/01/27 04:06:14;;;;;;;16.00;2.28;;;;;;;3.65;100.00;103327.22;7402599;19;19915;-75
2024/01/27 04:08:45;;;;;;;14.52;2.33;;;;;;;3.64;100.00;103337.00;7402305;19;19926;-75
2024/01/27 04:11:22;;;;;;;8.50;1.92;;;;;;;3.62;100.00;103324.69;7402802;19;19919;-75
2024/01/27 04:13:54;;;;;;;;;;;;;;;3.57;100.00;103334.69;7405029;19;19919;-75
2024/01/27 04:16:23;;;;;;;8.98;1.50;;;;;;;3.58;100.00;103341.78;7402086;19;19915;-75
2024/01/27 04:18:53;;;;;;;6.10;1.10;;;;;;;3.58;100.00;103336.44;7402754;19;19918;-76
2024/01/27 04:21:22;;;;;;;8.40;1.40;;;;;;;3.56;100.00;103336.50;7402582;19;19915;-75
2024/01/27 04:23:52;;;;;;;11.23;1.85;;;;;;;3.54;100.00;103340.16;7402919;19;19929;-75
2024/01/27 04:26:21;;;;;;;21.08;2.22;;;;;;;3.51;100.00;103334.97;7401789;19;19925;-76
2024/01/27 04:28:51;;;;;;;13.57;2.05;;;;;;;3.46;100.00;103337.84;7401374;19;19922;-75
2024/01/27 04:31:23;;;;;;;12.75;1.88;;;;;;;3.43;100.00;103339.78;7400529;19;20020;-75
2024/01/27 04:33:52;;;;;;;14.02;2.42;;;;;;;3.38;100.00;103329.34;7401501;19;21120;-75
2024/01/27 04:36:29;;;;;;;7.80;1.75;;;;;;;3.34;100.00;103343.75;7401922;19;19930;-75
2024/01/27 04:38:58;;;;;;;10.65;2.70;;;;;;;3.32;100.00;103329.66;7401529;19;19923;-75
2024/01/27 04:41:28;;;;;;;16.48;2.50;;;;;;;3.27;100.00;103342.31;7402221;19;19922;-76
2024/01/27 04:43:58;;;;;;;9.68;1.65;;;;;;;3.27;100.00;103334.31;7402007;19;19918;-75
2024/01/27 04:46:30;;;;;;;12.20;2.53;;;;;;;3.26;100.00;103335.25;7400868;19;19915;-75
2024/01/27 04:49:00;;;;;;;11.68;2.15;;;;;;;3.24;100.00;103345.09;7401524;19;20268;-75
2024/01/27 04:51:29;;;;;;;11.70;1.90;;;;;;;3.24;100.00;103337.09;7401237;19;19947;-75
2024/01/27 04:53:59;;;;;;;5.70;1.50;;;;;;;3.21;100.00;103337.25;7401864;19;19914;-75
2024/01/27 04:56:30;;;;;;;13.85;2.20;;;;;;;3.19;100.00;103333.81;7402119;19;19919;-75
2024/01/27 04:58:59;;;;;;;9.07;2.45;;;;;;;3.19;100.00;103341.78;7400448;19;19922;-75
2024/01/27 05:01:31;;;;;;;8.15;1.95;;;;;;;3.17;100.00;103339.19;7401840;19;19919;-75
2024/01/27 05:04:01;;;;;;;8.90;2.45;;;;;;;3.17;100.00;103333.00;7400818;19;19922;-75
2024/01/27 05:06:30;;;;;;;13.98;2.40;;;;;;;3.16;100.00;103334.78;7400829;19;19935;-75
2024/01/27 05:08:59;;;;;;;12.10;1.63;;;;;;;3.16;100.00;103328.59;7401189;19;20517;-75
2024/01/27 05:11:32;;;;;;;13.07;2.08;;;;;;;3.17;100.00;103330.31;7400932;19;19926;-75
2024/01/27 05:14:02;;;;;;;12.60;1.70;;;;;;;3.17;100.00;103333.00;7400736;19;20662;-75
2024/01/27 05:16:34;;;;;;;16.88;2.60;;;;;;;3.16;100.00;103324.13;7400837;19;19915;-75
2024/01/27 05:19:03;;;;;;;8.68;1.70;;;;;;;3.15;100.00;103330.38;7403424;19;19917;-75
2024/01/27 05:21:33;;;;;;;12.05;2.47;;;;;;;3.14;100.00;103339.34;7408041;19;19929;-75
2024/01/27 05:24:02;;;;;;;10.48;1.65;;;;;;;3.13;100.00;103328.75;7407504;19;19925;-75
2024/01/27 05:26:32;;;;;;;10.45;2.65;;;;;;;3.10;100.00;103332.41;7400176;19;19922;-75
2024/01/27 05:29:01;;;;;;;14.35;1.90;;;;;;;3.10;100.00;103331.56;7401148;19;19934;-75
2024/01/27 05:31:34;;;;;;;12.50;1.95;;;;;;;3.08;100.00;103331.59;7399859;19;19926;-75
2024/01/27 05:34:04;;;;;;;13.43;1.85;;;;;;;3.08;100.00;103336.94;7399918;19;20260;-75
2024/01/27 05:36:33;;;;;;;12.10;1.90;;;;;;;3.08;100.00;103338.72;7399576;19;19923;-75
2024/01/27 05:39:04;;;;;;;9.10;1.80;;;;;;;3.10;100.00;103339.53;7399899;19;19923;-75
2024/01/27 05:41:33;;;;;;;16.38;2.08;;;;;;;3.12;100.00;103337.66;7399727;19;19929;-75
2024/01/27 05:44:03;;;;;;;7.90;1.50;;;;;;;3.13;100.00;103342.06;7402794;19;19929;-75
2024/01/27 05:46:35;;;;;;;12.55;2.08;;;;;;;3.15;100.00;103340.16;7406099;19;19925;-76
2024/01/27 05:49:04;;;;;;;9.20;1.50;;;;;;;3.17;100.00;103340.97;7403928;19;19915;-75
2024/01/27 05:51:34;;;;;;;9.50;2.35;;;;;;;3.15;100.00;103345.50;7405759;19;19926;-75
2024/01/27 05:54:03;;;;;;;12.57;2.20;;;;;;;3.14;100.00;103347.31;7405181;19;21039;-75
2024/01/27 05:56:32;;;;;;;6.97;1.65;;;;;;;3.14;100.00;103351.78;7406246;19;20466;-75
2024/01/27 05:59:02;;;;;;;9.30;1.58;;;;;;;3.13;100.00;103361.56;7404535;19;19919;-75
2024/01/27 06:01:34;;;;;;;12.85;1.73;;;;;;;3.12;100.00;103364.28;7406099;19;19925;-75
2024/01/27 06:04:04;;;;;;;9.52;1.85;;;;;;;3.11;100.00;103375.88;7403031;19;20356;-75
2024/01/27 06:06:33;;;;;;;10.63;1.50;;;;;;;3.10;100.00;103371.50;7405420;19;19926;-75
2024/01/27 06:09:03;;;;;;;10.13;1.90;;;;;;;3.09;100.00;103372.41;7404099;19;19918;-75
2024/01/27 06:11:33;;;;;;;13.38;2.10;;;;;;;3.08;100.00;103368.03;7404813;19;19914;-75
2024/01/27 06:14:02;;;;;;;5.38;1.30;;;;;;;3.07;100.00;103366.28;7405170;19;20268;-75
2024/01/27 06:16:35;;;;;;;10.00;1.45;;;;;;;3.05;100.00;103382.34;7404794;19;19922;-75
2024/01/27 06:19:04;;;;;;;8.77;1.48;;;;;;;3.04;100.00;103377.94;7404862;19;19918;-75
2024/01/27 06:21:34;;;;;;;15.60;2.05;;;;;;;3.06;100.00;103377.88;7404991;19;20395;-75
2024/01/27 06:24:03;;;;;;;14.40;2.20;;;;;;;3.04;100.00;103379.75;7404984;19;20332;-75
2024/01/27 06:26:33;;;;;;;12.52;1.88;;;;;;;3.05;100.00;103379.69;7404674;19;19922;-75
2024/01/27 06:29:02;;;;;;;13.40;1.75;;;;;;;3.03;100.00;103380.66;7405265;19;20336;-75
2024/01/27 06:31:34;;;;;;;14.35;1.73;;;;;;;3.04;100.00;103379.75;7405171;19;19927;-75
2024/01/27 06:34:04;;;;;;;11.13;1.45;;;;;;;3.02;100.00;103392.28;7405402;19;20248;-75
2024/01/27 06:36:33;;;;;;;12.90;3.47;;;;;;;3.01;100.00;103396.72;7405091;19;19907;-75
2024/01/27 06:39:03;;;;;;;13.02;2.40;;;;;;;3.01;100.00;103398.53;7404156;19;19922;-76
2024/01/27 06:41:32;;;;;;;11.13;1.95;;;;;;;2.99;100.00;103392.38;7404808;19;20275;-75
2024/01/27 06:44:03;;;;;;;11.43;2.15;;;;;;;2.97;100.00;103388.94;7404692;19;19939;-75
2024/01/27 06:46:34;;;;;;;13.93;2.88;;;;;;;2.92;100.00;103381.16;7405041;19;19922;-75
2024/01/27 06:49:04;;;;;;;16.65;4.20;;;;;;;2.92;100.00;103389.13;7403986;19;19915;-75
2024/01/27 06:51:33;;;;;;;20.10;7.57;;;;;;;2.90;100.00;103401.63;7405271;19;19919;-75
2024/01/27 06:54:03;;;;;;;27.38;8.73;;;;;;;2.89;100.00;103402.56;7403276;19;19930;-75
2024/01/27 06:56:32;;;;;;;22.08;8.60;;;;;;;2.88;100.00;103400.84;7403447;19;19930;-75
2024/01/27 06:59:02;;;;;;;19.67;6.63;;;;;;;2.86;100.00;103393.84;7404312;19;19926;-75
2024/01/27 07:01:31;;;;;;;13.88;3.92;;;;;;;2.85;100.00;103394.81;7404001;19;19923;-75
2024/01/27 07:04:03;;;;;;;12.18;2.20;;;;;;;2.83;100.00;103396.66;7404143;19;20245;-75
2024/01/27 07:06:32;;;;;;;13.13;2.38;;;;;;;2.80;100.00;103389.66;7404065;19;19918;-75
2024/01/27 07:09:02;;;;;;;15.55;2.47;;;;;;;2.80;100.00;103394.13;7404301;19;19911;-75
2024/01/27 07:11:31;;;;;;;17.00;2.25;;;;;;;2.79;100.00;103403.03;7401996;19;19922;-75
2024/01/27 07:14:01;;;;;;;6.93;1.65;;;;;;;2.76;100.00;103400.50;7403515;19;19918;-74
2024/01/27 07:16:29;;;;;;;11.80;2.72;;;;;;;2.74;100.00;103406.75;7403342;19;20349;-74
2024/01/27 07:18:58;;;;;;;9.93;1.65;;;;;;;2.73;100.00;103399.69;7403191;19;19926;-75
2024/01/27 07:21:31;;;;;;;14.20;2.42;;;;;;;2.72;100.00;103399.75;7403425;19;19990;-74
2024/01/27 07:23:59;;;;;;;10.15;2.45;;;;;;;2.71;100.00;103406.91;7403784;19;20332;-75
2024/01/27 07:26:28;;;;;;;13.68;2.25;;;;;;;2.68;100.00;103411.44;7403530;19;19911;-74
2024/01/27 07:28:57;;;;;;;13.80;2.10;;;;;;;2.69;100.00;103400.75;7404645;19;19919;-74
2024/01/27 07:31:26;;;;;;;15.77;1.90;;;;;;;2.68;100.00;103399.00;7403161;19;19933;-75
2024/01/27 07:33:55;;;;;;;7.43;2.05;;;;;;;2.69;100.00;103405.22;7403660;19;19918;-76
2024/01/27 07:36:25;;;;;;;10.43;1.88;;;;;;;2.68;100.00;103406.13;7403041;19;20545;-75
2024/01/27 07:38:56;;;;;;;8.65;1.67;;;;;;;2.69;100.00;103408.75;7405616;19;19910;-75
2024/01/27 07:41:25;;;;;;;7.32;2.60;;;;;;;2.68;100.00;103407.00;7406533;19;19918;-76
2024/01/27 07:43:54;;;;;;;8.55;2.38;;;;;;;2.70;100.00;103412.28;7409152;19;19923;-76
2024/01/27 07:46:22;;;;;;;7.63;1.58;;;;;;;2.70;100.00;103407.81;7410432;19;19910;-75
2024/01/27 07:48:51;;;;;;;12.52;2.20;;;;;;;2.71;100.00;103409.56;7402476;19;19915;-75
2024/01/27 07:51:20;;;;;;;14.18;2.42;;;;;;;2.72;100.00;103408.59;7404221;19;19921;-76
2024/01/27 07:53:48;;;;;;;11.02;2.33;;;;;;;2.73;100.00;103407.69;7402686;19;20556;-75
2024/01/27 07:56:19;;;;;;;11.35;2.28;;;;;;;2.77;100.00;103416.41;7403237;19;19941;-76
2024/01/27 07:58:48;;;;;;;13.63;2.63;;;;;;;2.78;100.00;103418.13;7402583;19;19923;-76
2024/01/27 08:01:17;;;;;;;25.40;3.15;;;;;;;2.80;100.00;103402.09;7403505;19;19914;-76
2024/01/27 08:03:45;;;;;;;19.00;2.45;;;;;;;2.81;100.00;103409.13;7402523;19;19918;-75
2024/01/27 08:06:18;;;;;;;11.38;2.25;;;;;;;2.84;100.00;103417.88;7400705;19;19954;-75
2024/01/27 08:08:47;;;;;;;11.35;2.05;;;;;;;2.87;100.00;103424.88;7402012;19;19910;-76
2024/01/27 08:11:17;;;;;;;18.65;3.10;;;;;;;2.91;100.00;103423.81;7402211;19;20299;-76
2024/01/27 08:13:49;;;;;;;15.60;2.35;;;;;;;2.94;100.00;103426.31;7402533;19;19923;-76
2024/01/27 08:16:18;;;;;;;15.73;2.50;;;;;;;2.97;100.00;103429.75;7402057;19;19941;-76
2024/01/27 08:18:48;;;;;;;7.03;2.28;;;;;;;3.02;100.00;103426.88;7402505;19;20272;-76
2024/01/27 08:21:17;;;;;;;9.25;2.20;;;;;;;3.03;100.00;103440.13;7401951;19;19925;-75
2024/01/27 08:23:47;;;;;;;12.65;2.33;;;;;;;3.07;100.00;103444.38;7402608;19;19915;-76
2024/01/27 08:26:18;;;;;;;9.48;2.20;;;;;;;3.10;100.00;103444.28;7402511;19;19918;-76
2024/01/27 08:28:50;;;;;;;18.20;2.17;;;;;;;3.16;100.00;103440.44;7402738;19;19919;-76
2024/01/27 08:31:20;;;;;;;10.65;2.13;;;;;;;3.18;100.00;103430.63;7402186;19;19941;-75
2024/01/27 08:33:49;;;;;;;14.45;3.17;;;;;;;3.22;100.00;103453.53;7402304;19;19925;-76
2024/01/27 08:36:18;;;;;;;11.20;2.75;;;;;;;3.25;100.00;103461.38;7401601;19;19922;-76
2024/01/27 08:38:48;;;;;;;14.40;3.45;;;;;;;3.31;100.00;103457.59;7402376;19;20348;-76
2024/01/27 08:41:17;;;;;;;17.63;2.45;;;;;;;3.36;100.00;103456.47;7401767;19;19923;-75
2024/01/27 08:43:49;;;;;;;6.60;2.45;;;;;;;3.42;100.00;103444.63;7401690;19;19922;-75
2024/01/27 08:46:21;;;;;;;9.90;2.40;;;;;;;3.46;100.00;103455.09;7401531;19;19926;-76
2024/01/27 08:48:51;;;;;;;12.20;2.78;;;;;;;3.51;100.00;103455.75;7399169;19;19915;-76
2024/01/27 08:51:17;;;;;;;16.38;2.95;;;;;;;3.58;100.00;103456.38;7402131;19;20343;-76
2024/01/27 08:53:48;;;;;;;15.10;2.53;;;;;;;3.62;100.00;103455.31;7400353;19;19941;-76
2024/01/27 08:56:18;;;;;;;12.48;3.35;;;;;;;3.67;100.00;103452.44;7402282;19;19932;-76
2024/01/27 08:58:51;;;;;;;10.70;2.33;;;;;;;3.73;100.00;103458.34;7400939;19;19922;-76
2024/01/27 09:01:20;;;;;;;8.48;2.33;;;;;;;3.78;100.00;103463.47;7401767;19;19926;-76
2024/01/27 09:03:49;;;;;;;9.02;2.53;;;;;;;3.84;100.00;103466.69;7400051;19;19918;-76
2024/01/27 09:06:19;;;;;;;10.02;2.15;;;;;;;3.90;100.00;103462.88;7401452;19;19925;-76
2024/01/27 09:08:48;;;;;;;13.57;3.90;;;;;;;3.96;100.00;103455.50;7400900;19;19929;-76
2024/01/27 09:11:18;;;;;;;17.30;2.60;;;;;;;4.01;100.00;103460.59;7401688;19;19930;-76
2024/01/27 09:13:51;;;;;;;9.43;2.80;;;;;;;4.06;100.00;103451.44;7401151;19;19923;-76
2024/01/27 09:16:21;;;;;;;9.02;2.55;;;;;;;4.10;100.00;103460.16;7400902;19;20273;-76
2024/01/27 09:18:52;;;;;;;17.80;3.40;;;;;;;4.17;100.00;103452.75;7403414;19;19915;-76
2024/01/27 09:21:27;;;;;;;11.52;3.10;;;;;;;4.19;100.00;103457.06;7405649;19;19914;-76
2024/01/27 09:23:57;;;;;;;11.98;2.72;;;;;;;4.23;100.00;103471.97;7406457;19;19914;-75
2024/01/27 09:26:26;;;;;;;8.30;2.63;;;;;;;4.26;100.00;103473.66;7405923;19;19933;-76
2024/01/27 09:28:59;;;;;;;9.30;2.67;;;;;;;4.31;100.00;103477.84;7405197;19;19922;-75
2024/01/27 09:31:28;;;;;;;13.55;3.35;;;;;;;4.34;100.00;103483.03;7405529;19;20283;-76
2024/01/27 09:33:58;;;;;;;13.15;3.90;;;;;;;4.37;100.00;103477.53;7405741;19;19918;-76
2024/01/27 09:36:27;;;;;;;8.38;3.03;;;;;;;4.42;100.00;103478.19;7405690;19;19922;-75
2024/01/27 09:38:59;;;;;;;11.43;3.03;;;;;;;4.47;100.00;103484.16;7406053;19;19959;-75
2024/01/27 09:41:33;;;;;;;12.00;3.50;;;;;;;4.51;100.00;103490.22;7406371;19;19918;-75
2024/01/27 09:44:07;;;;;;;12.52;3.72;;;;;;;4.53;100.00;103472.34;7405031;19;19918;-74
2024/01/27 09:46:36;;;;;;;11.80;3.78;;;;;;;4.57;100.00;103485.44;7406532;19;19942;-75
2024/01/27 09:49:06;;;;;;;15.93;3.03;;;;;;;4.63;100.00;103489.63;7404479;19;20359;-75
2024/01/27 09:51:36;;;;;;;12.68;3.17;;;;;;;4.67;100.00;103493.00;7405727;19;19923;-75
2024/01/27 09:54:06;;;;;;;13.13;4.00;;;;;;;4.72;100.00;103483.84;7404795;19;19950;-75
2024/01/27 09:56:37;;;;;;;13.48;3.40;;;;;;;4.80;100.00;103494.13;7405865;19;19914;-75
2024/01/27 09:59:14;;;;;;;12.15;2.85;;;;;;;4.84;100.00;103499.25;7404818;19;19938;-75
2024/01/27 10:01:43;;;;;;;11.90;3.20;;;;;;;4.90;100.00;103503.44;7407209;19;19918;-75
2024/01/27 10:04:14;;;;;;;9.02;3.10;;;;;;;4.96;100.00;103508.47;7409397;19;19926;-75
2024/01/27 10:06:43;;;;;;;9.35;3.15;;;;;;;5.02;100.00;103510.81;7410522;19;19919;-75
2024/01/27 10:09:13;;;;;;;13.95;3.60;;;;;;;5.10;100.00;103500.63;7405654;19;20261;-75
2024/01/27 10:11:48;;;;;;;8.65;3.22;;;;;;;5.17;100.00;103494.03;7403937;19;19934;-75
2024/01/27 10:14:20;;;;;;;14.52;3.38;;;;;;;5.25;100.00;103491.84;7405274;19;19914;-75
2024/01/27 10:16:49;;;;;;;8.50;3.65;;;;;;;5.32;100.00;103497.72;7403866;19;20352;-75
2024/01/27 10:19:20;;;;;;;10.90;3.55;;;;;;;5.39;100.00;103504.50;7405492;19;20367;-75
2024/01/27 10:21:50;;;;;;;11.40;4.38;;;;;;;5.46;100.00;103514.78;7404554;19;19933;-75
2024/01/27 10:24:20;;;;;;;10.60;2.67;;;;;;;5.52;100.00;103504.72;7404104;19;20392;-75
2024/01/27 10:26:49;;;;;;;8.90;2.97;;;;;;;5.59;100.00;103509.66;7404363;19;19930;-75
2024/01/27 10:29:22;;;;;;;10.85;3.75;;;;;;;5.67;100.00;103511.94;7402611;19;19922;-75
2024/01/27 10:31:51;;;;;;;12.48;3.83;;;;;;;5.74;100.00;103510.66;7404940;19;19926;-75
2024/01/27 10:34:22;;;;;;;10.68;3.50;;;;;;;5.82;100.00;103516.47;7404678;19;19983;-75
2024/01/27 10:36:52;;;;;;;12.40;2.53;;;;;;;5.90;100.00;103514.28;7404865;19;20283;-75
2024/01/27 10:39:23;;;;;;;11.00;3.35;;;;;;;5.99;100.00;103523.63;7403249;19;19930;-76
2024/01/27 10:41:54;;;;;;;14.32;3.42;;;;;;;6.03;100.00;103523.38;7405517;19;20370;-75
2024/01/27 10:44:28;;;;;;;15.45;3.20;;;;;;;6.06;100.00;103519.66;7403793;19;19922;-75
2024/01/27 10:47:04;;;;;;;11.52;2.90;;;;;;;6.12;100.00;103522.91;7403430;19;19914;-75
2024/01/27 10:49:36;;;;;;;11.07;3.30;;;;;;;6.20;100.00;103509.09;7404113;19;20271;-75
2024/01/27 10:52:13;;;;;;;12.95;3.10;;;;;;;6.23;100.00;103520.47;7403320;19;19925;-75
2024/01/27 10:54:44;;;;;;;14.02;3.25;;;;;;;6.36;100.00;103536.72;7403214;19;19925;-75
2024/01/27 10:57:15;;;;;;;15.50;3.13;;;;;;;6.45;100.00;103514.81;7403672;19;19958;-75
2024/01/27 10:59:49;;;;;;;15.05;3.47;;;;;;;6.53;100.00;103525.09;7403654;19;20310;-75
2024/01/27 11:02:18;;;;;;;18.02;3.33;;;;;;;6.58;100.00;103515.84;7403702;19;19930;-75
2024/01/27 11:04:51;;;;;;;10.60;2.85;;;;;;;6.66;100.00;103518.09;7403297;19;20561;-75
2024/01/27 11:07:22;;;;;;;8.57;3.10;;;;;;;6.64;100.00;103520.88;7403686;19;20295;-75
2024/01/27 11:09:55;;;;;;;14.40;3.40;;;;;;;6.69;100.00;103516.09;7403995;19;20261;-75
2024/01/27 11:12:26;;;;;;;13.85;3.80;;;;;;;6.73;100.00;103536.38;7404488;19;20276;-75
2024/01/27 11:14:59;;;;;;;11.05;3.60;;;;;;;6.76;100.00;103532.69;7402851;19;19926;-75
2024/01/27 11:17:29;;;;;;;9.75;3.47;;;;;;;6.83;100.00;103534.06;7402008;19;19919;-75
2024/01/27 11:19:59;;;;;;;10.95;2.97;;;;;;;6.91;100.00;103525.56;7403672;19;20277;-75
2024/01/27 11:22:30;;;;;;;9.38;2.85;;;;;;;7.00;100.00;103525.91;7404142;19;20324;-76
2024/01/27 11:25:09;;;;;;;15.52;2.95;;;;;;;7.05;100.00;103534.56;7403052;19;19919;-75
2024/01/27 11:27:38;;;;;;;11.18;3.63;;;;;;;7.11;100.00;103538.72;7403843;19;19919;-75
2024/01/27 11:30:28;;;;;;;10.10;2.65;;;;;;;7.17;100.00;103528.47;7402714;19;19952;-76
2024/01/27 11:32:57;;;;;;;14.48;3.97;;;;;;;7.27;100.00;103532.34;7403159;19;20077;-75